Time;durP1;ratioP1;P1;durP2;ratioP2;P2;SDS_P1;SDS_P2;PMS_P1;PMS_P2;Temp;Humidity;BMP_temperature;BMP_pressure;BME280_temperature;BME280_humidity;BME280_pressure;Samples;Min_cycle;Max_cycle;Signal;HPM_P1;HPM_P2
2021/03/19 00:01:56;;;;;;;13.70;7.10;;;0.40;99.90;;;;;;5030702;28;21103;-48
2021/03/19 00:04:22;;;;;;;12.27;5.80;;;0.50;99.90;;;;;;5030332;28;20445;-49
2021/03/19 00:06:49;;;;;;;14.67;7.00;;;0.40;99.90;;;;;;5017805;28;20455;-50
2021/03/19 00:09:16;;;;;;;13.33;6.97;;;0.40;99.90;;;;;;5023358;28;20454;-49
2021/03/19 00:11:43;;;;;;;13.30;6.33;;;0.40;99.90;;;;;;5034229;28;21020;-49
2021/03/19 00:14:10;;;;;;;12.57;6.40;;;0.50;99.90;;;;;;5033993;28;20478;-49
2021/03/19 00:16:38;;;;;;;9.33;5.90;;;0.60;99.90;;;;;;5014705;28;20492;-49
2021/03/19 00:19:06;;;;;;;9.40;5.30;;;0.60;99.90;;;;;;5016015;28;20460;-49
2021/03/19 00:21:33;;;;;;;13.43;5.30;;;0.60;99.90;;;;;;5015029;28;20452;-48
2021/03/19 00:24:00;;;;;;;11.90;5.37;;;0.60;99.90;;;;;;5014004;28;20476;-49
2021/03/19 00:26:27;;;;;;;11.50;5.30;;;0.50;99.90;;;;;;5016363;28;20966;-49
2021/03/19 00:28:54;;;;;;;9.00;5.10;;;0.60;99.90;;;;;;5016078;28;20452;-49
2021/03/19 00:31:21;;;;;;;9.60;4.90;;;0.60;99.90;;;;;;5015734;28;20488;-48
2021/03/19 00:33:47;;;;;;;10.47;5.30;;;0.50;99.90;;;;;;5020376;28;20476;-49
2021/03/19 00:36:14;;;;;;;11.30;6.03;;;0.60;99.90;;;;;;5034310;28;20464;-49
2021/03/19 00:38:40;;;;;;;12.23;5.80;;;0.50;99.90;;;;;;5032777;28;20478;-51
2021/03/19 00:41:07;;;;;;;9.30;5.30;;;0.40;99.90;;;;;;5035737;28;20444;-49
2021/03/19 00:43:33;;;;;;;9.90;5.30;;;0.40;99.90;;;;;;5036547;28;20468;-49
2021/03/19 00:46:01;;;;;;;10.23;5.60;;;0.30;99.90;;;;;;5035961;28;20487;-49
2021/03/19 00:48:27;;;;;;;12.20;6.00;;;0.40;99.90;;;;;;5024435;28;20484;-49
2021/03/19 00:50:55;;;;;;;10.30;6.23;;;0.50;99.90;;;;;;5012459;28;20484;-50
2021/03/19 00:53:21;;;;;;;9.63;5.40;;;0.40;99.90;;;;;;5012729;28;20482;-49
2021/03/19 00:55:48;;;;;;;12.63;6.13;;;0.40;99.90;;;;;;5013549;28;20453;-49
2021/03/19 00:58:15;;;;;;;9.63;5.70;;;0.30;99.90;;;;;;5013149;28;20498;-49
2021/03/19 01:00:41;;;;;;;11.47;5.30;;;0.40;99.90;;;;;;5013065;28;20463;-49
2021/03/19 01:03:10;;;;;;;12.33;5.70;;;0.50;99.90;;;;;;5018823;28;20542;-49
2021/03/19 01:05:39;;;;;;;10.70;6.30;;;0.50;99.90;;;;;;5032897;28;20801;-49
2021/03/19 01:08:06;;;;;;;13.00;6.37;;;0.60;99.90;;;;;;5031360;28;20463;-49
2021/03/19 01:10:35;;;;;;;11.80;5.50;;;0.40;99.90;;;;;;5012914;28;20484;-49
2021/03/19 01:13:02;;;;;;;12.10;5.53;;;0.40;99.90;;;;;;5030045;28;20476;-49
2021/03/19 01:15:30;;;;;;;12.30;5.90;;;0.30;99.90;;;;;;5019351;28;20513;-49
2021/03/19 01:17:56;;;;;;;14.23;6.27;;;0.10;99.90;;;;;;5032553;28;21010;-50
2021/03/19 01:20:25;;;;;;;11.80;6.17;;;0.10;99.90;;;;;;5022319;28;20460;-49
2021/03/19 01:22:53;;;;;;;11.33;5.73;;;0.10;99.90;;;;;;5018898;28;20563;-49
2021/03/19 01:25:22;;;;;;;9.50;5.63;;;0.10;99.90;;;;;;5029079;28;20913;-50
2021/03/19 01:27:48;;;;;;;11.10;5.87;;;0.20;99.90;;;;;;5013315;28;20447;-49
2021/03/19 01:30:18;;;;;;;10.60;6.00;;;0.30;99.90;;;;;;5028728;28;20465;-49
2021/03/19 01:32:47;;;;;;;12.13;6.00;;;0.20;99.90;;;;;;5012795;28;20492;-49
2021/03/19 01:35:14;;;;;;;12.80;6.87;;;0.10;99.90;;;;;;5012358;28;20463;-49
2021/03/19 01:37:42;;;;;;;12.50;5.93;;;0.00;99.90;;;;;;5012566;28;20461;-49
2021/03/19 01:40:12;;;;;;;9.40;5.43;;;0.00;99.90;;;;;;5012418;28;20458;-49
2021/03/19 01:42:40;;;;;;;11.40;6.13;;;0.20;99.90;;;;;;5013693;28;21292;-49
2021/03/19 01:45:39;;;;;;;10.40;5.90;;;0.30;99.90;;;;;;5012181;28;20463;-49
2021/03/19 01:48:42;;;;;;;9.40;5.50;;;0.20;99.90;;;;;;5025376;28;20501;-49
2021/03/19 01:51:46;;;;;;;10.10;5.83;;;0.40;99.90;;;;;;5012351;28;20483;-49
2021/03/19 01:54:49;;;;;;;9.70;5.33;;;0.20;99.90;;;;;;5018710;28;20472;-49
2021/03/19 01:57:53;;;;;;;12.27;5.30;;;0.30;99.90;;;;;;5012209;28;20460;-49
2021/03/19 02:00:56;;;;;;;13.83;6.47;;;0.20;99.90;;;;;;5025455;28;20456;-50
2021/03/19 02:04:00;;;;;;;8.17;5.03;;;0.20;99.90;;;;;;5029676;28;20980;-50
2021/03/19 02:07:03;;;;;;;9.50;4.53;;;0.10;99.90;;;;;;5032815;28;20809;-49
2021/03/19 02:10:07;;;;;;;8.37;4.40;;;0.30;99.90;;;;;;5012072;28;20818;-50
2021/03/19 02:13:10;;;;;;;10.33;4.73;;;0.20;99.90;;;;;;5011746;28;20479;-49
2021/03/19 02:16:14;;;;;;;11.63;5.40;;;0.20;99.90;;;;;;5012442;28;20498;-49
2021/03/19 02:19:17;;;;;;;10.17;4.80;;;0.10;99.90;;;;;;5018444;28;20459;-49
2021/03/19 02:22:35;;;;;;;7.60;4.67;;;0.10;99.90;;;;;;5012954;28;20450;-49
2021/03/19 02:25:38;;;;;;;9.30;4.67;;;0.30;99.90;;;;;;4950848;29;20459;-49
2021/03/19 02:28:42;;;;;;;11.90;5.40;;;0.30;99.90;;;;;;4951291;29;20455;-50
2021/03/19 02:31:11;;;;;;;10.73;5.10;;;0.30;99.90;;;;;;5006880;28;20485;-49
2021/03/19 02:33:50;;;;;;;7.57;4.40;;;0.40;99.90;;;;;;5023101;28;20525;-50
2021/03/19 02:36:23;;;;;;;9.50;5.20;;;0.60;99.90;;;;;;5031530;28;20451;-49
2021/03/19 02:38:50;;;;;;;7.33;4.77;;;0.50;99.90;;;;;;5018397;28;21038;-49
2021/03/19 02:41:17;;;;;;;14.60;6.03;;;0.50;99.90;;;;;;5025406;28;20529;-49
2021/03/19 02:43:44;;;;;;;12.50;6.90;;;0.40;99.90;;;;;;5012125;28;20483;-49
2021/03/19 02:46:11;;;;;;;11.43;5.20;;;0.40;99.90;;;;;;5011261;28;20452;-49
2021/03/19 02:48:38;;;;;;;11.80;5.70;;;0.20;99.90;;;;;;5016013;28;20455;-49
2021/03/19 02:51:07;;;;;;;9.47;5.10;;;0.00;99.90;;;;;;5023461;28;21031;-49
2021/03/19 02:53:36;;;;;;;12.10;5.30;;;0.10;99.90;;;;;;5028115;28;20530;-50
2021/03/19 02:56:07;;;;;;;10.10;5.27;;;0.10;99.90;;;;;;5014201;28;20509;-49
2021/03/19 02:58:33;;;;;;;13.77;5.60;;;0.00;99.90;;;;;;5018682;28;20455;-49
2021/03/19 03:01:01;;;;;;;9.67;5.33;;;-0.20;99.90;;;;;;5011142;28;20508;-49
2021/03/19 03:03:28;;;;;;;9.30;5.33;;;-0.30;99.90;;;;;;5023677;28;20483;-49
2021/03/19 03:05:54;;;;;;;12.20;5.47;;;-0.30;99.90;;;;;;5028719;28;20575;-49
2021/03/19 03:08:22;;;;;;;9.87;4.80;;;-0.30;99.90;;;;;;5011857;28;20457;-49
2021/03/19 03:10:50;;;;;;;12.03;6.07;;;-0.40;99.90;;;;;;5012235;28;21043;-49
2021/03/19 03:13:18;;;;;;;9.73;5.37;;;-0.40;99.90;;;;;;5009363;28;20472;-49
2021/03/19 03:15:45;;;;;;;9.63;5.47;;;-0.30;99.90;;;;;;5010865;28;20506;-49
2021/03/19 03:18:13;;;;;;;11.70;5.60;;;-0.30;99.90;;;;;;5011032;28;20453;-49
2021/03/19 03:20:45;;;;;;;10.33;5.43;;;-0.30;99.90;;;;;;5010496;28;20452;-49
2021/03/19 03:23:11;;;;;;;11.30;5.67;;;-0.30;99.90;;;;;;5010362;28;20479;-49
2021/03/19 03:25:38;;;;;;;12.57;5.73;;;-0.40;99.90;;;;;;5010602;28;20462;-49
2021/03/19 03:28:07;;;;;;;11.20;5.43;;;-0.50;99.90;;;;;;5010412;28;20455;-49
2021/03/19 03:30:37;;;;;;;16.27;4.50;;;-0.60;99.90;;;;;;5010799;28;20456;-49
2021/03/19 03:33:05;;;;;;;8.20;5.20;;;-0.60;99.90;;;;;;5011015;28;20471;-49
2021/03/19 03:35:32;;;;;;;9.53;4.50;;;-0.40;99.90;;;;;;5010376;28;20453;-49
2021/03/19 03:37:59;;;;;;;11.83;5.73;;;-0.50;99.90;;;;;;5011038;28;20456;-50
2021/03/19 03:40:30;;;;;;;14.63;5.90;;;-0.50;99.90;;;;;;5011025;28;20459;-49
2021/03/19 03:42:57;;;;;;;11.40;5.40;;;-0.60;99.90;;;;;;5010348;28;20830;-49
2021/03/19 03:45:24;;;;;;;11.20;5.40;;;-0.60;99.90;;;;;;5010272;28;20502;-49
2021/03/19 03:47:51;;;;;;;14.37;6.17;;;-0.50;99.90;;;;;;5010520;28;20460;-49
2021/03/19 03:50:22;;;;;;;9.60;5.33;;;-0.60;99.90;;;;;;5027443;28;20446;-49
2021/03/19 03:52:49;;;;;;;9.90;5.73;;;-0.60;99.90;;;;;;5050412;28;20474;-48
2021/03/19 03:55:15;;;;;;;9.90;5.33;;;-0.60;99.90;;;;;;5049948;28;20443;-49
2021/03/19 04:07:55;;;;;;;10.93;5.40;;;-0.40;99.90;;;;;;5016824;28;20434;-49
2021/03/19 04:10:23;;;;;;;14.20;5.90;;;-0.50;99.90;;;;;;5035066;28;20457;-49
2021/03/19 04:12:50;;;;;;;12.73;6.33;;;-0.50;99.90;;;;;;5030254;28;20828;-49
2021/03/19 04:15:18;;;;;;;12.03;6.27;;;-0.50;99.90;;;;;;5029214;28;20509;-49
2021/03/19 04:17:46;;;;;;;13.77;7.60;;;-0.40;99.90;;;;;;5030083;28;20449;-49
2021/03/19 04:20:15;;;;;;;12.73;7.30;;;-0.50;99.90;;;;;;5025983;28;21066;-49
2021/03/19 04:22:42;;;;;;;11.40;6.83;;;-0.50;99.90;;;;;;5030010;28;20464;-49
2021/03/19 04:25:11;;;;;;;15.40;7.50;;;-0.50;99.90;;;;;;5031717;28;21001;-49
2021/03/19 04:27:45;;;;;;;12.30;6.97;;;-0.70;99.90;;;;;;5033584;28;20453;-49
2021/03/19 04:30:18;;;;;;;11.60;6.70;;;-0.60;99.90;;;;;;5014044;28;20518;-49
2021/03/19 04:32:45;;;;;;;13.13;6.77;;;-0.70;99.90;;;;;;5013653;28;20486;-49
2021/03/19 04:35:12;;;;;;;10.93;6.23;;;-0.80;99.90;;;;;;5013631;28;20463;-49
2021/03/19 04:37:39;;;;;;;11.70;6.00;;;-0.90;99.90;;;;;;5018511;28;20477;-49
2021/03/19 04:40:07;;;;;;;11.30;5.77;;;-0.80;99.90;;;;;;5032916;28;20464;-49
2021/03/19 04:42:35;;;;;;;12.97;6.43;;;-0.70;99.90;;;;;;5032731;28;20557;-49
2021/03/19 04:45:02;;;;;;;11.07;5.90;;;-0.70;99.90;;;;;;5033100;28;20444;-49
2021/03/19 04:47:29;;;;;;;12.63;7.00;;;-0.80;99.90;;;;;;5033193;28;20462;-49
2021/03/19 04:49:55;;;;;;;10.77;6.57;;;-0.70;99.90;;;;;;5016130;28;20504;-49
2021/03/19 04:52:22;;;;;;;11.40;6.83;;;-0.70;99.90;;;;;;5013118;28;21029;-49
2021/03/19 04:54:50;;;;;;;10.90;6.30;;;-0.70;99.90;;;;;;5013070;28;20459;-49
2021/03/19 04:57:17;;;;;;;15.23;6.97;;;-0.70;99.90;;;;;;5013226;28;20517;-49
2021/03/19 04:59:44;;;;;;;11.70;6.60;;;-0.70;99.90;;;;;;5065034;22;20495;-46
2021/03/19 05:02:10;;;;;;;11.73;6.63;;;-0.70;99.90;;;;;;5068480;28;20511;-46
2021/03/19 05:04:37;;;;;;;11.83;6.20;;;-0.70;99.90;;;;;;5072518;28;20454;-46
2021/03/19 05:07:09;;;;;;;10.33;6.40;;;-0.70;99.90;;;;;;5071739;28;20451;-46
2021/03/19 05:09:36;;;;;;;11.70;6.73;;;-0.80;99.90;;;;;;5055247;28;20473;-47
2021/03/19 05:12:05;;;;;;;11.80;5.57;;;-0.80;99.90;;;;;;5045088;28;20498;-46
2021/03/19 05:14:34;;;;;;;12.97;6.80;;;-0.80;99.90;;;;;;5032702;28;20446;-46
2021/03/19 05:17:01;;;;;;;11.80;5.77;;;-0.90;99.90;;;;;;5044474;28;20473;-46
2021/03/19 05:19:27;;;;;;;11.17;5.97;;;-0.90;99.90;;;;;;5052352;28;20473;-46
2021/03/19 05:21:54;;;;;;;12.30;6.33;;;-0.90;99.90;;;;;;5040963;28;20960;-46
2021/03/19 05:24:20;;;;;;;13.60;7.10;;;-1.00;99.90;;;;;;5043157;28;20861;-46
2021/03/19 05:26:47;;;;;;;20.37;9.00;;;-1.00;99.90;;;;;;5037978;28;20447;-46
2021/03/19 05:29:13;;;;;;;17.23;9.40;;;-1.10;99.90;;;;;;5047470;28;20550;-46
2021/03/19 05:31:41;;;;;;;16.30;9.30;;;-1.20;99.90;;;;;;5041058;28;20482;-45
2021/03/19 05:34:10;;;;;;;18.60;9.40;;;-1.30;99.90;;;;;;5048616;28;20493;-44
2021/03/19 05:36:37;;;;;;;19.40;9.20;;;-1.20;99.90;;;;;;5051527;28;20444;-45
2021/03/19 05:39:05;;;;;;;21.73;10.17;;;-1.30;99.90;;;;;;5047335;28;20854;-46
2021/03/19 05:41:35;;;;;;;20.70;10.13;;;-1.20;99.90;;;;;;5051969;28;20451;-45
2021/03/19 05:44:06;;;;;;;27.77;9.47;;;-1.10;99.90;;;;;;5051864;28;20938;-46
2021/03/19 05:46:35;;;;;;;19.90;9.70;;;-0.90;99.90;;;;;;5051132;28;20444;-47
2021/03/19 05:49:05;;;;;;;17.43;9.23;;;-1.00;99.90;;;;;;5051677;28;20530;-46
2021/03/19 05:51:36;;;;;;;21.83;10.10;;;-1.10;99.90;;;;;;5051661;28;20476;-46
2021/03/19 05:54:14;;;;;;;20.33;10.40;;;-1.20;99.90;;;;;;5051233;28;20464;-46
2021/03/19 05:56:42;;;;;;;20.77;9.60;;;-1.20;99.90;;;;;;5051022;28;20453;-46
2021/03/19 05:59:09;;;;;;;16.20;9.20;;;-1.10;99.90;;;;;;5051214;28;20542;-46
2021/03/19 06:01:36;;;;;;;16.23;8.70;;;-1.10;99.90;;;;;;5051399;28;20458;-45
2021/03/19 06:04:04;;;;;;;18.37;8.37;;;-1.00;99.90;;;;;;5050401;28;20456;-46
2021/03/19 06:06:54;;;;;;;16.60;8.13;;;-1.00;99.90;;;;;;5050014;28;20449;-46
2021/03/19 06:09:36;;;;;;;16.60;8.77;;;-0.90;99.90;;;;;;5040289;28;20537;-46
2021/03/19 06:12:06;;;;;;;16.73;8.93;;;-0.80;99.90;;;;;;5045314;28;21030;-47
2021/03/19 06:14:47;;;;;;;23.77;11.88;;;-0.70;99.90;;;;;;5040163;28;20517;-46
2021/03/19 06:17:28;;;;;;;16.83;9.47;;;-0.70;99.90;;;;;;5046284;28;20577;-46
2021/03/19 06:19:56;;;;;;;16.60;8.80;;;-0.60;99.90;;;;;;5050349;28;20469;-46
2021/03/19 06:22:30;;;;;;;17.33;8.53;;;-0.30;99.90;;;;;;5045996;28;20502;-46
2021/03/19 06:28:29;;;;;;;14.03;7.70;;;1.30;99.90;;;;;;5046867;28;20409;-47
2021/03/19 06:31:15;;;;;;;13.47;7.17;;;2.70;99.90;;;;;;5035131;28;20956;-47
2021/03/19 06:33:42;;;;;;;23.37;9.80;;;3.80;99.90;;;;;;5039267;28;20453;-46
2021/03/19 06:36:15;;;;;;;13.97;8.17;;;4.20;99.90;;;;;;5030624;28;20452;-47
2021/03/19 06:38:48;;;;;;;14.40;8.50;;;4.40;99.90;;;;;;5029480;28;20887;-46
2021/03/19 06:41:22;;;;;;;10.27;6.63;;;5.20;99.90;;;;;;5047557;28;20427;-47
2021/03/19 06:43:49;;;;;;;10.90;6.50;;;5.70;99.90;;;;;;5048470;28;20455;-46
2021/03/19 06:46:19;;;;;;;11.80;6.70;;;5.50;99.90;;;;;;5050312;28;20452;-46
2021/03/19 06:48:48;;;;;;;13.23;7.00;;;5.50;99.90;;;;;;5049460;28;20463;-47
2021/03/19 06:51:26;;;;;;;15.03;6.70;;;5.30;99.90;;;;;;5050296;28;20510;-46
2021/03/19 06:53:59;;;;;;;9.60;6.17;;;5.10;99.90;;;;;;5035885;28;20453;-46
2021/03/19 06:56:26;;;;;;;11.60;6.60;;;5.30;99.90;;;;;;5030283;28;20448;-46
2021/03/19 06:58:52;;;;;;;13.07;6.20;;;5.20;99.90;;;;;;5034199;28;20476;-46
2021/03/19 07:01:35;;;;;;;14.27;7.03;;;4.60;99.90;;;;;;5044744;28;20494;-46
2021/03/19 07:04:37;;;;;;;10.00;6.30;;;4.40;99.90;;;;;;5036307;28;20460;-46
2021/03/19 07:07:41;;;;;;;12.10;6.70;;;4.60;99.90;;;;;;5049911;28;20451;-46
2021/03/19 07:10:41;;;;;;;12.63;7.20;;;4.90;99.90;;;;;;5048960;28;20476;-46
2021/03/19 07:13:27;;;;;;;13.13;6.37;;;4.80;99.90;;;;;;5028742;28;20463;-46
2021/03/19 07:16:03;;;;;;;12.00;6.50;;;4.50;99.90;;;;;;5034252;28;20454;-46
2021/03/19 07:18:40;;;;;;;15.30;6.30;;;4.80;99.90;;;;;;5044593;28;20448;-49
2021/03/19 07:21:32;;;;;;;10.97;5.27;;;4.60;99.90;;;;;;5037399;28;20455;-46
2021/03/19 07:24:10;;;;;;;7.43;4.70;;;5.00;99.90;;;;;;5050413;28;20451;-47
2021/03/19 07:26:40;;;;;;;7.80;4.50;;;5.30;99.90;;;;;;5049941;28;20505;-47
2021/03/19 07:29:48;;;;;;;13.13;3.93;;;5.30;99.90;;;;;;5050316;28;20970;-47
2021/03/19 07:32:37;;;;;;;5.20;3.53;;;5.60;99.90;;;;;;5049492;28;20488;-46
2021/03/19 07:35:17;;;;;;;8.67;4.47;;;5.60;99.90;;;;;;5050434;28;20467;-47
2021/03/19 07:38:40;;;;;;;6.53;3.73;;;5.60;99.90;;;;;;5050246;28;20451;-47
2021/03/19 07:41:27;;;;;;;4.87;3.40;;;6.00;99.90;;;;;;4966571;28;20445;-46
2021/03/19 07:44:17;;;;;;;4.77;3.50;;;6.00;99.90;;;;;;5024619;28;20892;-47
2021/03/19 07:46:57;;;;;;;9.87;4.60;;;5.90;99.90;;;;;;5030154;28;20498;-46
2021/03/19 07:49:42;;;;;;;5.77;3.30;;;5.80;99.90;;;;;;5030174;28;20468;-49
2021/03/19 07:52:29;;;;;;;4.93;3.10;;;6.20;99.90;;;;;;5044944;28;20506;-47
2021/03/19 07:55:02;;;;;;;10.57;4.30;;;6.00;99.90;;;;;;5050013;28;20447;-47
2021/03/19 07:57:36;;;;;;;9.43;4.50;;;6.30;99.90;;;;;;5050049;28;20448;-47
2021/03/19 08:00:11;;;;;;;5.83;3.40;;;6.70;99.90;;;;;;5052076;28;20475;-47
2021/03/19 08:02:50;;;;;;;4.20;2.90;;;6.90;99.90;;;;;;5034974;28;20444;-47
2021/03/19 08:05:22;;;;;;;7.07;3.50;;;6.70;99.90;;;;;;5033716;28;20446;-48
2021/03/19 08:07:57;;;;;;;3.90;3.10;;;6.80;99.90;;;;;;5034262;28;20458;-47
2021/03/19 08:10:28;;;;;;;7.53;3.90;;;7.00;99.90;;;;;;5034091;28;20488;-48
2021/03/19 08:13:03;;;;;;;5.57;3.90;;;6.80;99.90;;;;;;5053889;28;20541;-48
2021/03/19 08:15:37;;;;;;;6.20;3.47;;;6.50;99.90;;;;;;5053952;28;20832;-48
2021/03/19 08:18:15;;;;;;;7.50;4.17;;;6.80;99.90;;;;;;5053977;28;20443;-48
2021/03/19 08:20:56;;;;;;;6.23;4.07;;;6.50;99.90;;;;;;5050836;28;20512;-48
2021/03/19 08:23:34;;;;;;;5.80;3.90;;;6.80;99.90;;;;;;5033911;28;20455;-48
2021/03/19 08:26:01;;;;;;;6.03;4.10;;;7.40;99.90;;;;;;5033547;28;21010;-48
2021/03/19 08:28:37;;;;;;;7.63;3.80;;;7.00;99.90;;;;;;5033497;28;20441;-48
2021/03/19 08:31:21;;;;;;;5.10;3.80;;;7.40;99.90;;;;;;5038458;28;20888;-48
2021/03/19 08:34:09;;;;;;;5.93;4.37;;;7.80;99.90;;;;;;5053546;28;20446;-48
2021/03/19 08:36:40;;;;;;;5.63;3.97;;;7.80;99.90;;;;;;5053123;28;20447;-49
2021/03/19 08:39:18;;;;;;;4.67;3.43;;;8.00;99.60;;;;;;5053037;28;20463;-48
2021/03/19 08:41:48;;;;;;;7.30;4.37;;;7.60;98.40;;;;;;5052252;28;20821;-48
2021/03/19 08:44:18;;;;;;;5.93;3.97;;;7.60;97.90;;;;;;5052939;28;20450;-49
2021/03/19 08:46:49;;;;;;;4.50;3.70;;;7.40;97.50;;;;;;5050995;28;20451;-49
2021/03/19 08:49:41;;;;;;;4.97;3.97;;;7.80;98.90;;;;;;5052482;28;20835;-48
2021/03/19 08:52:36;;;;;;;5.00;4.10;;;7.90;96.90;;;;;;5033284;28;20487;-47
2021/03/19 08:55:26;;;;;;;4.20;3.43;;;7.40;97.50;;;;;;4997130;28;20460;-48
2021/03/19 08:57:55;;;;;;;7.40;4.10;;;7.70;97.90;;;;;;5032530;28;20502;-48
2021/03/19 09:00:49;;;;;;;4.77;3.53;;;8.00;96.90;;;;;;5038756;28;20533;-48
2021/03/19 09:03:52;;;;;;;4.90;3.23;;;8.40;97.60;;;;;;5037623;28;20443;-48
2021/03/19 09:06:33;;;;;;;9.70;3.87;;;8.10;94.60;;;;;;5051989;28;20452;-48
2021/03/19 09:09:22;;;;;;;5.10;3.53;;;8.50;96.60;;;;;;5051167;28;20471;-48
2021/03/19 09:12:22;;;;;;;5.70;3.30;;;8.90;95.10;;;;;;5040468;28;20559;-48
2021/03/19 09:15:13;;;;;;;5.67;3.60;;;8.70;94.20;;;;;;5051155;28;20530;-48
2021/03/19 09:17:53;;;;;;;5.50;4.33;;;8.80;94.90;;;;;;5051641;28;20447;-48
2021/03/19 09:20:56;;;;;;;4.87;3.73;;;9.20;97.10;;;;;;5040371;28;20472;-48
2021/03/19 09:23:31;;;;;;;5.80;4.40;;;9.40;97.20;;;;;;4996270;28;20987;-48
2021/03/19 09:26:44;;;;;;;5.60;4.03;;;9.30;94.80;;;;;;5037015;28;20454;-48
2021/03/19 09:29:33;;;;;;;7.80;4.93;;;9.30;93.40;;;;;;5025084;28;20563;-48
2021/03/19 09:32:21;;;;;;;6.13;3.93;;;9.50;93.40;;;;;;5037292;28;20483;-47
2021/03/19 09:35:15;;;;;;;6.33;4.37;;;9.60;94.20;;;;;;5051443;28;20872;-48
2021/03/19 09:37:54;;;;;;;7.70;5.30;;;9.50;92.50;;;;;;5051531;28;20448;-48
2021/03/19 09:40:56;;;;;;;5.23;3.83;;;9.50;95.70;;;;;;5040384;28;20473;-48
2021/03/19 09:43:39;;;;;;;5.33;4.20;;;9.80;95.60;;;;;;5031740;28;20451;-48
2021/03/19 09:46:18;;;;;;;6.23;4.33;;;10.50;94.70;;;;;;5030200;28;20456;-48
2021/03/19 09:48:59;;;;;;;4.80;3.87;;;10.60;94.60;;;;;;5031818;28;20468;-48
2021/03/19 09:51:36;;;;;;;6.47;4.47;;;10.80;91.90;;;;;;5051072;28;21261;-48
2021/03/19 09:54:31;;;;;;;6.90;4.80;;;11.20;91.90;;;;;;5051522;28;20447;-48
2021/03/19 09:57:03;;;;;;;6.00;4.57;;;10.60;93.80;;;;;;5051420;28;20948;-47
2021/03/19 09:59:34;;;;;;;7.80;5.30;;;9.90;94.10;;;;;;5033563;28;20914;-48
2021/03/19 10:02:02;;;;;;;6.00;4.60;;;10.40;95.50;;;;;;5031386;28;20452;-48
2021/03/19 10:04:37;;;;;;;6.30;5.07;;;11.10;91.90;;;;;;5031289;28;20522;-48
2021/03/19 10:07:15;;;;;;;6.93;5.40;;;11.70;93.30;;;;;;5031182;28;20444;-48
2021/03/19 10:09:44;;;;;;;5.57;4.50;;;11.70;93.10;;;;;;5049793;28;20521;-48
2021/03/19 10:12:16;;;;;;;8.03;5.30;;;11.60;90.30;;;;;;5051163;28;20483;-48
2021/03/19 10:14:44;;;;;;;10.13;5.43;;;12.00;87.70;;;;;;5051008;28;20447;-48
2021/03/19 10:17:26;;;;;;;6.57;5.00;;;11.30;86.50;;;;;;5050815;28;20815;-47
2021/03/19 10:19:57;;;;;;;9.40;5.53;;;10.10;86.50;;;;;;5030861;28;20552;-47
2021/03/19 10:22:39;;;;;;;8.30;5.50;;;9.70;90.60;;;;;;5050098;28;20459;-48
2021/03/19 10:25:31;;;;;;;7.67;5.20;;;10.10;89.30;;;;;;5050789;28;20444;-48
2021/03/19 10:28:00;;;;;;;9.10;5.47;;;10.50;90.10;;;;;;5037026;28;20527;-47
2021/03/19 10:30:31;;;;;;;7.67;5.40;;;10.30;90.70;;;;;;5030812;28;20559;-48
2021/03/19 10:33:03;;;;;;;7.50;5.60;;;10.60;89.00;;;;;;5030865;28;20484;-48
2021/03/19 10:35:34;;;;;;;7.97;5.90;;;10.20;91.00;;;;;;5030642;28;20514;-47
2021/03/19 10:38:12;;;;;;;8.30;5.60;;;10.30;90.00;;;;;;5034515;28;20454;-47
2021/03/19 10:40:40;;;;;;;7.73;5.77;;;10.00;92.00;;;;;;5050512;28;20448;-48
2021/03/19 10:43:14;;;;;;;12.90;5.60;;;10.80;90.80;;;;;;5050587;28;20448;-47
2021/03/19 10:45:48;;;;;;;10.87;5.53;;;11.00;88.40;;;;;;5050473;28;20707;-48
2021/03/19 10:48:21;;;;;;;10.70;5.40;;;11.20;87.10;;;;;;5044144;28;20471;-48
2021/03/19 10:51:07;;;;;;;7.00;5.20;;;11.10;87.40;;;;;;5030417;28;20820;-48
2021/03/19 10:53:42;;;;;;;8.13;5.87;;;10.70;87.70;;;;;;5030413;28;20449;-47
2021/03/19 10:56:09;;;;;;;7.57;5.30;;;11.10;87.60;;;;;;5030636;28;20440;-47
2021/03/19 11:01:03;;;;;;;7.17;5.17;;;9.90;91.90;;;;;;5082818;22;20494;-51
2021/03/19 11:03:38;;;;;;;9.30;5.60;;;10.10;89.10;;;;;;5069572;28;20209;-51
2021/03/19 11:06:08;;;;;;;9.07;5.50;;;10.00;87.80;;;;;;5069473;28;20473;-51
2021/03/19 11:08:35;;;;;;;9.33;5.70;;;9.20;90.10;;;;;;5055952;28;20443;-51
2021/03/19 11:11:03;;;;;;;7.97;5.50;;;9.10;91.40;;;;;;5030490;28;20461;-51
2021/03/19 11:13:32;;;;;;;9.47;5.73;;;9.00;90.80;;;;;;5029268;28;20487;-51
2021/03/19 11:16:00;;;;;;;9.00;5.20;;;9.00;91.20;;;;;;5029360;28;20502;-51
2021/03/19 11:18:33;;;;;;;8.30;5.80;;;9.20;90.60;;;;;;5036198;28;20452;-51
2021/03/19 11:21:03;;;;;;;7.83;5.40;;;9.50;91.30;;;;;;5049583;28;20471;-51
2021/03/19 11:23:35;;;;;;;9.00;5.93;;;9.40;90.30;;;;;;5049410;28;20462;-51
2021/03/19 11:26:19;;;;;;;7.90;5.47;;;9.00;90.80;;;;;;5040570;28;21110;-51
2021/03/19 11:28:47;;;;;;;10.03;5.40;;;9.00;92.50;;;;;;5039078;28;20455;-51
2021/03/19 11:31:31;;;;;;;11.40;6.10;;;9.40;90.40;;;;;;5049000;28;20812;-50
2021/03/19 11:34:02;;;;;;;12.47;6.50;;;8.90;94.60;;;;;;5049612;28;20446;-51
2021/03/19 11:36:50;;;;;;;10.00;6.57;;;8.30;93.90;;;;;;5052632;28;20443;-51
2021/03/19 11:39:31;;;;;;;9.03;5.77;;;7.80;94.80;;;;;;5052893;28;20876;-50
2021/03/19 11:41:59;;;;;;;10.97;5.60;;;8.10;95.90;;;;;;5053147;28;20450;-50
2021/03/19 11:44:25;;;;;;;9.67;6.50;;;8.30;93.10;;;;;;5044790;28;20455;-50
2021/03/19 11:46:52;;;;;;;8.87;5.60;;;8.70;93.50;;;;;;5038593;28;20450;-51
2021/03/19 11:49:18;;;;;;;9.37;5.77;;;9.00;91.30;;;;;;5052614;28;20535;-51
2021/03/19 11:51:45;;;;;;;7.30;5.33;;;8.80;93.10;;;;;;5052564;28;20476;-52
2021/03/19 11:54:11;;;;;;;9.03;5.80;;;9.00;96.00;;;;;;5052407;28;20443;-51
2021/03/19 11:56:39;;;;;;;8.07;5.23;;;8.70;95.10;;;;;;5035070;28;20449;-51
2021/03/19 11:59:10;;;;;;;8.77;5.80;;;8.80;94.70;;;;;;5010569;28;629395;-51
2021/03/19 12:01:36;;;;;;;10.40;5.70;;;9.10;92.60;;;;;;5033771;28;20535;-52
2021/03/19 12:04:04;;;;;;;9.17;6.03;;;8.90;91.70;;;;;;5034047;28;20445;-51
2021/03/19 12:06:32;;;;;;;8.90;5.70;;;8.80;91.50;;;;;;5036117;28;20460;-51
2021/03/19 12:08:59;;;;;;;7.87;5.50;;;8.90;91.70;;;;;;5053428;28;20999;-51
2021/03/19 12:11:28;;;;;;;8.50;5.70;;;8.90;91.80;;;;;;5053391;28;20508;-51
2021/03/19 12:13:56;;;;;;;6.40;4.60;;;8.90;91.50;;;;;;5053026;28;20498;-49
2021/03/19 12:16:24;;;;;;;8.60;5.77;;;8.70;93.20;;;;;;5053292;28;20454;-50
2021/03/19 12:18:51;;;;;;;7.90;4.93;;;7.70;93.70;;;;;;5053863;28;20446;-50
2021/03/19 12:21:18;;;;;;;9.23;5.70;;;8.00;92.50;;;;;;5054001;28;20446;-50
2021/03/19 12:23:44;;;;;;;8.73;5.77;;;8.50;94.00;;;;;;5053591;28;20446;-51
2021/03/19 12:26:11;;;;;;;9.80;5.90;;;8.80;93.90;;;;;;5053595;28;20453;-51
2021/03/19 12:28:37;;;;;;;8.43;5.40;;;9.20;92.50;;;;;;5053266;28;20505;-50
2021/03/19 12:31:04;;;;;;;8.47;6.13;;;9.20;92.10;;;;;;5053947;28;20447;-50
2021/03/19 12:33:34;;;;;;;9.00;5.80;;;8.40;92.80;;;;;;5053839;28;20858;-51
2021/03/19 12:36:01;;;;;;;10.47;5.83;;;8.40;94.30;;;;;;5044087;28;20456;-51
2021/03/19 12:38:29;;;;;;;9.30;5.70;;;8.60;94.40;;;;;;5031217;28;20519;-49
2021/03/19 12:40:57;;;;;;;8.77;6.10;;;7.70;94.70;;;;;;5025173;28;20475;-51
2021/03/19 12:43:24;;;;;;;9.20;5.83;;;7.00;94.70;;;;;;5032493;28;20452;-50
2021/03/19 12:45:52;;;;;;;8.67;5.47;;;7.30;94.20;;;;;;5032575;28;20448;-50
2021/03/19 12:48:19;;;;;;;8.20;5.10;;;7.30;93.90;;;;;;5033159;28;20457;-50
2021/03/19 12:50:47;;;;;;;8.70;5.10;;;7.40;93.90;;;;;;5031273;28;20493;-49
2021/03/19 12:53:15;;;;;;;7.30;5.20;;;6.90;93.60;;;;;;5027481;28;20478;-50
2021/03/19 12:55:44;;;;;;;8.40;5.53;;;6.50;94.60;;;;;;5019992;28;20468;-51
2021/03/19 12:58:11;;;;;;;8.73;5.40;;;6.30;95.00;;;;;;5021889;28;20477;-50
2021/03/19 13:00:39;;;;;;;10.27;5.00;;;6.50;95.00;;;;;;5019992;28;20477;-50
2021/03/19 13:03:07;;;;;;;7.73;5.13;;;6.80;95.40;;;;;;5027399;28;20456;-50
2021/03/19 13:05:34;;;;;;;6.70;5.03;;;6.70;95.00;;;;;;5032434;28;20460;-50
2021/03/19 13:08:02;;;;;;;9.77;5.80;;;6.90;96.40;;;;;;5027250;28;20468;-50
2021/03/19 13:10:33;;;;;;;8.00;6.00;;;7.30;95.50;;;;;;5013113;28;20480;-50
2021/03/19 13:13:00;;;;;;;8.23;5.17;;;7.70;93.80;;;;;;5012996;28;20535;-49
2021/03/19 13:15:30;;;;;;;8.70;5.43;;;8.00;94.00;;;;;;5025572;28;20453;-50
2021/03/19 13:17:57;;;;;;;6.67;4.73;;;8.40;94.80;;;;;;5020723;28;20824;-51
2021/03/19 13:20:25;;;;;;;8.80;5.37;;;8.30;91.20;;;;;;5030617;28;20479;-50
2021/03/19 13:22:52;;;;;;;10.00;5.73;;;8.50;90.50;;;;;;5026506;28;20450;-50
2021/03/19 13:25:23;;;;;;;7.27;5.20;;;8.30;91.10;;;;;;5023128;28;20453;-51
2021/03/19 13:27:50;;;;;;;9.30;5.10;;;8.50;91.60;;;;;;5032421;28;20449;-51
2021/03/19 13:30:18;;;;;;;8.23;5.10;;;8.50;92.70;;;;;;5031985;28;20475;-50
2021/03/19 13:32:47;;;;;;;9.60;5.67;;;8.10;91.10;;;;;;5032301;28;20515;-50
2021/03/19 13:35:20;;;;;;;8.63;5.43;;;7.80;92.50;;;;;;5030953;28;20452;-51
2021/03/19 13:37:47;;;;;;;9.07;5.43;;;7.90;92.50;;;;;;5031748;28;20489;-51
2021/03/19 13:40:15;;;;;;;7.40;5.00;;;7.90;92.00;;;;;;5032260;28;20477;-51